Time;durP1;ratioP1;P1;durP2;ratioP2;P2;SDS_P1;SDS_P2;PMS_P1;PMS_P2;Temp;Humidity;BMP_temperature;BMP_pressure;BME280_temperature;BME280_humidity;BME280_pressure;Samples;Min_cycle;Max_cycle;Signal;HPM_P1;HPM_P2
2021/05/10 00:00:13;;;;;;;2.05;0.45;;;;;;;;;;5090219;28;20027;-59
2021/05/10 00:02:38;;;;;;;1.40;0.40;;;;;;;;;;5075392;28;20025;-59
2021/05/10 00:05:04;;;;;;;1.58;0.43;;;;;;;;;;5075308;28;20020;-60
2021/05/10 00:07:29;;;;;;;2.50;0.60;;;;;;;;;;5075794;28;20039;-60
2021/05/10 00:09:54;;;;;;;1.23;0.40;;;;;;;;;;5095176;28;20039;-58
2021/05/10 00:12:20;;;;;;;1.95;0.40;;;;;;;;;;5089384;28;20035;-60
2021/05/10 00:14:48;;;;;;;0.60;0.40;;;;;;;;;;5089245;28;20040;-58
2021/05/10 00:17:13;;;;;;;1.08;0.30;;;;;;;;;;5083629;28;20116;-58
2021/05/10 00:19:38;;;;;;;2.45;0.50;;;;;;;;;;5077826;28;20095;-58
2021/05/10 00:22:04;;;;;;;1.45;0.50;;;;;;;;;;5091770;28;20091;-58
2021/05/10 00:24:29;;;;;;;1.23;0.50;;;;;;;;;;5079276;28;20023;-59
2021/05/10 00:26:54;;;;;;;1.48;0.35;;;;;;;;;;5078497;28;20050;-60
2021/05/10 00:29:20;;;;;;;1.63;0.40;;;;;;;;;;5084217;28;20017;-60
2021/05/10 00:31:46;;;;;;;0.85;0.30;;;;;;;;;;5074459;28;20024;-60
2021/05/10 00:34:11;;;;;;;2.05;0.50;;;;;;;;;;5093055;28;20042;-60
2021/05/10 00:36:37;;;;;;;1.63;0.50;;;;;;;;;;5073509;28;20016;-60
2021/05/10 00:39:02;;;;;;;1.25;0.40;;;;;;;;;;5080148;28;20028;-60
2021/05/10 00:41:27;;;;;;;0.82;0.40;;;;;;;;;;5078050;28;20120;-60
2021/05/10 00:43:53;;;;;;;0.82;0.40;;;;;;;;;;5080536;28;20126;-57
2021/05/10 00:46:18;;;;;;;1.95;0.40;;;;;;;;;;5081787;28;20020;-60
2021/05/10 00:48:43;;;;;;;1.50;0.40;;;;;;;;;;5094543;28;20058;-60
2021/05/10 00:51:08;;;;;;;0.82;0.38;;;;;;;;;;5087708;28;20016;-60
2021/05/10 00:53:34;;;;;;;0.40;0.40;;;;;;;;;;5084400;28;20020;-59
2021/05/10 00:55:59;;;;;;;1.50;0.38;;;;;;;;;;5084152;28;20024;-59
2021/05/10 00:58:24;;;;;;;4.03;0.40;;;;;;;;;;5087140;28;20062;-60
2021/05/10 01:00:49;;;;;;;1.60;0.30;;;;;;;;;;5085621;28;20020;-60
2021/05/10 01:03:15;;;;;;;1.55;0.30;;;;;;;;;;5092944;28;20035;-60
2021/05/10 01:05:41;;;;;;;1.02;0.60;;;;;;;;;;5082629;28;20045;-60
2021/05/10 01:08:06;;;;;;;2.80;0.43;;;;;;;;;;5065699;28;20021;-60
2021/05/10 01:10:32;;;;;;;3.05;0.40;;;;;;;;;;5088807;28;20023;-60
2021/05/10 01:12:57;;;;;;;2.05;0.38;;;;;;;;;;5076177;28;20055;-60
2021/05/10 01:15:30;;;;;;;7.03;0.60;;;;;;;;;;5082390;28;20062;-60
2021/05/10 01:17:55;;;;;;;1.20;0.40;;;;;;;;;;5080587;28;20016;-58
2021/05/10 01:20:22;;;;;;;2.85;0.40;;;;;;;;;;5083671;28;20375;-60
2021/05/10 01:22:57;;;;;;;1.75;0.52;;;;;;;;;;5073280;28;20017;-59
2021/05/10 01:25:23;;;;;;;2.45;0.40;;;;;;;;;;5074880;28;20013;-59
2021/05/10 01:27:49;;;;;;;1.20;0.28;;;;;;;;;;5070063;28;20023;-58
2021/05/10 01:30:19;;;;;;;3.90;0.43;;;;;;;;;;5073477;28;20016;-58
2021/05/10 01:32:44;;;;;;;2.53;0.63;;;;;;;;;;5086595;28;20024;-59
2021/05/10 01:35:10;;;;;;;1.45;0.32;;;;;;;;;;5085266;28;20046;-59
2021/05/10 01:37:35;;;;;;;1.27;0.40;;;;;;;;;;5089494;28;20016;-59
2021/05/10 01:40:01;;;;;;;1.02;0.30;;;;;;;;;;5092141;28;20047;-58
2021/05/10 01:42:26;;;;;;;0.93;0.40;;;;;;;;;;5074576;28;20368;-59
2021/05/10 01:44:52;;;;;;;4.85;0.38;;;;;;;;;;5080602;28;20027;-59
2021/05/10 01:47:17;;;;;;;1.58;0.30;;;;;;;;;;5085092;28;20417;-58
2021/05/10 01:49:45;;;;;;;1.42;0.40;;;;;;;;;;5081354;28;21201;-58
2021/05/10 01:52:12;;;;;;;2.63;0.40;;;;;;;;;;5077902;28;20494;-59
2021/05/10 01:54:37;;;;;;;0.88;0.40;;;;;;;;;;5080488;28;20537;-59
2021/05/10 01:57:02;;;;;;;1.33;0.40;;;;;;;;;;5086727;28;20020;-59
2021/05/10 01:59:27;;;;;;;2.35;0.25;;;;;;;;;;5092221;28;20032;-59
2021/05/10 02:01:52;;;;;;;2.80;0.30;;;;;;;;;;5078837;28;20032;-59
2021/05/10 02:04:18;;;;;;;0.88;0.50;;;;;;;;;;5077056;28;20020;-59
2021/05/10 02:06:43;;;;;;;0.70;0.32;;;;;;;;;;5083483;28;20024;-59
2021/05/10 02:09:08;;;;;;;1.65;0.40;;;;;;;;;;5073521;28;20020;-59
2021/05/10 02:11:33;;;;;;;1.27;0.47;;;;;;;;;;5072526;28;20020;-59
2021/05/10 02:13:59;;;;;;;2.28;0.40;;;;;;;;;;5077924;28;20016;-59
2021/05/10 02:16:24;;;;;;;1.42;0.45;;;;;;;;;;5072559;28;20410;-59
2021/05/10 02:18:49;;;;;;;1.58;0.40;;;;;;;;;;5090583;28;20020;-59
2021/05/10 02:21:15;;;;;;;1.23;0.30;;;;;;;;;;5091167;28;20546;-59
2021/05/10 02:23:40;;;;;;;3.10;0.70;;;;;;;;;;5086655;28;20046;-59
2021/05/10 02:26:06;;;;;;;3.33;0.40;;;;;;;;;;5069241;28;20078;-59
2021/05/10 02:28:31;;;;;;;1.98;0.30;;;;;;;;;;5073144;28;20024;-58
2021/05/10 02:30:58;;;;;;;1.95;0.40;;;;;;;;;;5085214;28;20471;-58
2021/05/10 02:33:24;;;;;;;1.40;0.30;;;;;;;;;;5084726;28;20031;-59
2021/05/10 02:35:51;;;;;;;1.23;0.30;;;;;;;;;;5069422;28;20468;-58
2021/05/10 02:38:17;;;;;;;1.88;0.50;;;;;;;;;;5082573;28;20027;-59
2021/05/10 02:40:43;;;;;;;1.38;0.30;;;;;;;;;;5088791;28;20024;-58
2021/05/10 02:43:09;;;;;;;2.72;0.30;;;;;;;;;;5086112;28;20498;-58
2021/05/10 02:45:34;;;;;;;1.00;0.40;;;;;;;;;;5087510;28;20024;-60
2021/05/10 02:47:59;;;;;;;2.38;0.40;;;;;;;;;;5078728;28;20347;-58
2021/05/10 02:50:25;;;;;;;0.73;0.52;;;;;;;;;;5071394;28;20008;-57
2021/05/10 02:52:51;;;;;;;2.17;0.20;;;;;;;;;;5086158;28;20073;-58
2021/05/10 02:55:17;;;;;;;1.23;0.30;;;;;;;;;;5092591;28;20017;-59
2021/05/10 02:57:42;;;;;;;1.30;0.32;;;;;;;;;;5086208;28;20360;-59
2021/05/10 03:00:12;;;;;;;1.20;0.30;;;;;;;;;;5091288;28;20016;-59
2021/05/10 03:02:37;;;;;;;1.00;0.30;;;;;;;;;;5075886;28;20036;-58
2021/05/10 03:05:06;;;;;;;1.65;0.32;;;;;;;;;;5087346;28;20029;-58
2021/05/10 03:07:32;;;;;;;0.38;0.28;;;;;;;;;;5069131;28;20043;-58
2021/05/10 03:09:57;;;;;;;1.00;0.40;;;;;;;;;;5085136;28;20059;-57
2021/05/10 03:12:22;;;;;;;0.60;0.40;;;;;;;;;;5084863;28;20047;-58
2021/05/10 03:14:47;;;;;;;0.82;0.30;;;;;;;;;;5084918;28;20043;-58
2021/05/10 03:17:13;;;;;;;1.58;0.35;;;;;;;;;;5086550;28;20244;-58
2021/05/10 03:19:38;;;;;;;1.63;0.30;;;;;;;;;;5084877;28;20046;-58
2021/05/10 03:22:03;;;;;;;2.17;0.70;;;;;;;;;;5080877;28;20029;-58
2021/05/10 03:24:28;;;;;;;1.10;0.30;;;;;;;;;;5072065;28;20379;-59
2021/05/10 03:26:54;;;;;;;1.10;0.35;;;;;;;;;;5073570;28;20063;-60
2021/05/10 03:29:19;;;;;;;1.42;0.30;;;;;;;;;;5089865;28;20478;-59
2021/05/10 03:31:44;;;;;;;2.97;0.40;;;;;;;;;;5089582;28;20048;-59
2021/05/10 03:34:09;;;;;;;36.88;21.95;;;;;;;;;;5072464;28;20025;-58
2021/05/10 03:36:35;;;;;;;2.75;0.45;;;;;;;;;;5076862;28;20024;-58
2021/05/10 03:39:00;;;;;;;0.93;0.25;;;;;;;;;;5083965;28;20032;-58
2021/05/10 03:41:26;;;;;;;0.50;0.40;;;;;;;;;;5080852;28;20021;-59
2021/05/10 03:43:51;;;;;;;1.13;0.30;;;;;;;;;;5085896;28;20034;-59
2021/05/10 03:46:17;;;;;;;0.55;0.30;;;;;;;;;;5088492;28;20452;-58
2021/05/10 03:48:42;;;;;;;1.48;0.30;;;;;;;;;;5075019;28;20024;-59
2021/05/10 03:51:07;;;;;;;2.97;0.30;;;;;;;;;;5082287;28;20051;-58
2021/05/10 03:53:32;;;;;;;2.45;0.40;;;;;;;;;;5086010;28;20038;-59
2021/05/10 03:55:58;;;;;;;1.38;0.30;;;;;;;;;;5087796;28;20300;-58
2021/05/10 03:58:24;;;;;;;2.10;0.30;;;;;;;;;;5093324;28;20394;-58
2021/05/10 04:00:49;;;;;;;1.40;0.35;;;;;;;;;;5088805;28;20158;-59
2021/05/10 04:03:16;;;;;;;0.85;0.30;;;;;;;;;;5088077;28;20024;-58
2021/05/10 04:15:52;;;;;;;0.60;0.30;;;;;;;;;;5084987;28;20114;-60
2021/05/10 04:18:17;;;;;;;0.98;0.50;;;;;;;;;;5077795;28;20459;-59
2021/05/10 04:20:42;;;;;;;2.10;0.50;;;;;;;;;;5074017;28;20111;-59
2021/05/10 04:23:08;;;;;;;2.05;0.82;;;;;;;;;;5080361;28;20016;-59
2021/05/10 04:25:33;;;;;;;0.85;0.30;;;;;;;;;;5077684;28;20021;-58
2021/05/10 04:27:58;;;;;;;1.67;0.38;;;;;;;;;;5072406;28;20043;-59
2021/05/10 04:30:24;;;;;;;1.58;0.22;;;;;;;;;;5074485;28;20107;-59
2021/05/10 04:32:49;;;;;;;0.77;0.30;;;;;;;;;;5086382;28;20020;-59
2021/05/10 04:35:14;;;;;;;1.13;0.40;;;;;;;;;;5074416;28;20016;-61
2021/05/10 04:37:40;;;;;;;4.90;0.40;;;;;;;;;;5072005;28;20095;-58
2021/05/10 04:40:06;;;;;;;2.05;0.50;;;;;;;;;;5094557;28;20051;-59
2021/05/10 04:42:31;;;;;;;3.53;0.40;;;;;;;;;;5088954;28;20031;-59
2021/05/10 04:44:56;;;;;;;1.40;0.40;;;;;;;;;;5084631;28;20048;-59
2021/05/10 04:47:21;;;;;;;3.03;0.40;;;;;;;;;;5079030;28;20024;-59
2021/05/10 04:49:47;;;;;;;1.15;0.40;;;;;;;;;;5073572;28;20427;-59
2021/05/10 04:52:12;;;;;;;1.27;0.30;;;;;;;;;;5081266;28;20032;-59
2021/05/10 04:54:37;;;;;;;2.03;0.30;;;;;;;;;;5082675;28;20031;-59
2021/05/10 04:57:03;;;;;;;0.35;0.30;;;;;;;;;;5073821;28;20418;-59
2021/05/10 04:59:28;;;;;;;1.95;0.40;;;;;;;;;;5074548;28;20029;-58
2021/05/10 05:01:53;;;;;;;1.33;0.70;;;;;;;;;;5076417;28;20094;-59
2021/05/10 05:04:18;;;;;;;1.45;0.40;;;;;;;;;;5086771;28;20495;-60
2021/05/10 05:06:44;;;;;;;2.53;0.40;;;;;;;;;;5072639;28;20089;-60
2021/05/10 05:09:09;;;;;;;3.65;0.50;;;;;;;;;;5080005;28;20379;-60
2021/05/10 05:11:34;;;;;;;6.00;0.55;;;;;;;;;;5081974;28;20016;-60
2021/05/10 05:13:59;;;;;;;1.88;0.40;;;;;;;;;;5079877;28;20032;-60
2021/05/10 05:16:25;;;;;;;1.75;0.35;;;;;;;;;;5087839;28;20048;-60
2021/05/10 05:18:50;;;;;;;3.85;0.60;;;;;;;;;;5094105;28;20024;-60
2021/05/10 05:21:15;;;;;;;2.40;0.50;;;;;;;;;;5091658;28;20028;-60
2021/05/10 05:23:40;;;;;;;2.20;0.38;;;;;;;;;;5083046;28;20029;-60
2021/05/10 05:26:06;;;;;;;2.75;0.55;;;;;;;;;;5081166;28;20081;-60
2021/05/10 05:28:32;;;;;;;3.05;0.43;;;;;;;;;;5075699;28;20097;-60
2021/05/10 05:30:57;;;;;;;2.90;0.50;;;;;;;;;;5074483;28;20370;-59
2021/05/10 05:33:23;;;;;;;2.05;0.40;;;;;;;;;;5082355;28;20020;-59
2021/05/10 05:35:48;;;;;;;1.23;0.40;;;;;;;;;;5076835;28;20015;-60
2021/05/10 05:38:14;;;;;;;1.80;0.55;;;;;;;;;;5073681;28;20115;-60
2021/05/10 05:40:40;;;;;;;3.30;0.60;;;;;;;;;;5072724;28;20020;-59
2021/05/10 05:43:07;;;;;;;4.78;0.50;;;;;;;;;;5082797;28;20482;-59
2021/05/10 05:45:33;;;;;;;2.35;0.55;;;;;;;;;;5079874;28;20055;-60
2021/05/10 05:47:58;;;;;;;1.65;0.60;;;;;;;;;;5078234;28;20030;-59
2021/05/10 05:50:23;;;;;;;2.67;0.50;;;;;;;;;;5081376;28;20020;-60
2021/05/10 05:52:49;;;;;;;1.50;0.77;;;;;;;;;;5079407;28;20028;-60
2021/05/10 05:55:14;;;;;;;3.95;1.02;;;;;;;;;;5083940;28;20098;-59
2021/05/10 05:57:41;;;;;;;2.00;0.40;;;;;;;;;;5080463;28;20016;-60
2021/05/10 06:00:07;;;;;;;2.58;0.50;;;;;;;;;;5079081;28;20522;-60
2021/05/10 06:02:32;;;;;;;1.38;0.30;;;;;;;;;;5076584;28;20068;-60
2021/05/10 06:04:57;;;;;;;1.45;0.50;;;;;;;;;;5082987;28;20448;-60
2021/05/10 06:07:22;;;;;;;0.90;0.40;;;;;;;;;;5086185;28;20038;-61
2021/05/10 06:09:48;;;;;;;2.70;0.95;;;;;;;;;;5093004;28;20078;-60
2021/05/10 06:12:14;;;;;;;2.30;0.40;;;;;;;;;;5074508;28;20380;-60
2021/05/10 06:14:39;;;;;;;3.10;0.40;;;;;;;;;;5085174;28;20085;-60
2021/05/10 06:17:04;;;;;;;2.08;0.80;;;;;;;;;;5072407;28;20012;-60
2021/05/10 06:19:29;;;;;;;2.22;0.40;;;;;;;;;;5076736;28;20024;-61
2021/05/10 06:21:55;;;;;;;1.20;0.50;;;;;;;;;;5077731;28;20073;-61
2021/05/10 06:24:21;;;;;;;0.82;0.30;;;;;;;;;;5072151;28;20028;-60
2021/05/10 06:26:48;;;;;;;2.08;0.80;;;;;;;;;;5079817;28;20042;-59
2021/05/10 06:29:13;;;;;;;4.72;0.60;;;;;;;;;;5082463;28;20020;-60
2021/05/10 06:31:38;;;;;;;1.83;0.40;;;;;;;;;;5089968;28;20027;-60
2021/05/10 06:34:05;;;;;;;1.70;0.43;;;;;;;;;;5078704;28;20032;-60
2021/05/10 06:36:30;;;;;;;2.60;0.47;;;;;;;;;;5076622;28;20016;-60
2021/05/10 06:38:56;;;;;;;2.05;0.47;;;;;;;;;;5084729;28;20457;-61
2021/05/10 06:41:21;;;;;;;1.65;0.43;;;;;;;;;;5076304;28;20059;-62
2021/05/10 06:43:46;;;;;;;3.92;0.50;;;;;;;;;;5081134;28;20025;-60
2021/05/10 06:46:11;;;;;;;0.50;0.30;;;;;;;;;;5075945;28;20020;-61
2021/05/10 06:48:36;;;;;;;0.68;0.40;;;;;;;;;;5089365;28;20020;-60
2021/05/10 06:51:02;;;;;;;1.55;0.30;;;;;;;;;;5061623;28;20020;-61
2021/05/10 06:53:28;;;;;;;0.95;0.40;;;;;;;;;;5078133;28;20028;-60
2021/05/10 06:55:53;;;;;;;0.70;0.40;;;;;;;;;;5076089;28;20603;-61
2021/05/10 06:58:19;;;;;;;1.38;0.85;;;;;;;;;;5079647;28;20468;-59
2021/05/10 07:00:45;;;;;;;0.95;0.50;;;;;;;;;;5072914;28;20063;-60
2021/05/10 07:03:10;;;;;;;3.95;0.50;;;;;;;;;;5078681;28;20031;-59
2021/05/10 07:05:35;;;;;;;3.25;0.45;;;;;;;;;;5074175;28;20047;-61
2021/05/10 07:08:10;;;;;;;3.05;0.40;;;;;;;;;;5070568;28;20123;-59
2021/05/10 07:10:36;;;;;;;2.38;0.70;;;;;;;;;;5080775;28;20016;-59
2021/05/10 07:13:01;;;;;;;2.45;0.60;;;;;;;;;;5089367;28;20024;-57
2021/05/10 07:15:26;;;;;;;0.90;0.40;;;;;;;;;;5082514;28;20039;-60
2021/05/10 07:18:01;;;;;;;1.80;0.50;;;;;;;;;;5075587;28;20151;-60
2021/05/10 07:20:27;;;;;;;1.42;0.40;;;;;;;;;;5073897;28;20027;-60
2021/05/10 07:22:52;;;;;;;1.98;0.50;;;;;;;;;;5086164;28;20020;-58
2021/05/10 07:25:17;;;;;;;5.65;0.77;;;;;;;;;;5074976;28;20061;-59
2021/05/10 07:27:43;;;;;;;13.38;1.08;;;;;;;;;;5090238;28;20024;-59
2021/05/10 07:30:08;;;;;;;2.28;0.50;;;;;;;;;;5090203;28;20489;-59
2021/05/10 07:32:33;;;;;;;1.90;0.47;;;;;;;;;;5095622;28;20028;-59
2021/05/10 07:34:58;;;;;;;2.05;0.40;;;;;;;;;;5090271;28;20020;-60
2021/05/10 07:37:24;;;;;;;1.40;0.23;;;;;;;;;;5084070;28;20024;-60
2021/05/10 07:39:49;;;;;;;1.75;0.38;;;;;;;;;;5078468;28;20267;-60
2021/05/10 07:42:14;;;;;;;2.20;0.40;;;;;;;;;;5076360;28;20028;-59
2021/05/10 07:44:39;;;;;;;2.20;0.32;;;;;;;;;;5081793;28;20412;-59
2021/05/10 07:47:05;;;;;;;1.65;0.38;;;;;;;;;;5092862;28;20439;-60
2021/05/10 07:49:30;;;;;;;2.47;0.40;;;;;;;;;;5089460;28;20012;-60
2021/05/10 07:51:55;;;;;;;0.75;0.40;;;;;;;;;;5079324;28;20274;-59
2021/05/10 07:54:20;;;;;;;5.05;0.40;;;;;;;;;;5090597;28;20030;-60
2021/05/10 07:56:45;;;;;;;2.08;0.30;;;;;;;;;;5072404;28;20105;-60
2021/05/10 07:59:12;;;;;;;1.58;0.40;;;;;;;;;;5075152;28;20094;-59
2021/05/10 08:01:37;;;;;;;2.38;0.40;;;;;;;;;;5074751;28;20060;-59
2021/05/10 08:04:03;;;;;;;2.47;0.35;;;;;;;;;;5074989;28;20079;-60
2021/05/10 08:06:28;;;;;;;0.77;0.30;;;;;;;;;;5067902;28;20471;-60
2021/05/10 08:08:54;;;;;;;4.68;0.40;;;;;;;;;;5075170;28;20035;-60
2021/05/10 08:11:19;;;;;;;2.58;0.50;;;;;;;;;;5085596;28;20016;-58
2021/05/10 08:13:44;;;;;;;2.22;0.40;;;;;;;;;;5095312;28;20364;-60
2021/05/10 08:16:09;;;;;;;2.88;0.50;;;;;;;;;;5075696;28;20041;-60
2021/05/10 08:18:41;;;;;;;1.75;0.30;;;;;;;;;;5074776;28;20073;-59
2021/05/10 08:21:06;;;;;;;1.52;0.40;;;;;;;;;;5074543;28;20023;-59
2021/05/10 08:23:31;;;;;;;4.97;0.50;;;;;;;;;;5074598;28;20021;-59
2021/05/10 08:25:56;;;;;;;1.23;0.30;;;;;;;;;;5075270;28;20074;-60
2021/05/10 08:28:21;;;;;;;2.15;0.25;;;;;;;;;;5087746;28;20289;-59
2021/05/10 08:30:48;;;;;;;1.85;0.30;;;;;;;;;;5074267;28;20020;-60
2021/05/10 08:33:13;;;;;;;1.33;0.30;;;;;;;;;;5074469;28;20101;-60
2021/05/10 08:35:38;;;;;;;1.07;0.30;;;;;;;;;;5072161;28;20056;-60
2021/05/10 08:38:03;;;;;;;1.05;0.47;;;;;;;;;;5077593;28;20345;-59
2021/05/10 08:40:29;;;;;;;1.83;0.60;;;;;;;;;;5091077;28;20062;-58
2021/05/10 08:42:55;;;;;;;4.25;0.30;;;;;;;;;;5074932;28;20407;-59
2021/05/10 08:45:22;;;;;;;0.70;0.30;;;;;;;;;;5078818;28;20012;-60
2021/05/10 08:47:47;;;;;;;1.98;0.40;;;;;;;;;;5089763;28;20020;-59
2021/05/10 08:50:13;;;;;;;2.58;0.40;;;;;;;;;;5094273;28;20459;-59
2021/05/10 08:52:38;;;;;;;2.75;0.35;;;;;;;;;;5087882;28;20388;-60
2021/05/10 08:55:04;;;;;;;2.70;0.40;;;;;;;;;;5087385;28;20031;-59
2021/05/10 08:57:29;;;;;;;1.42;0.30;;;;;;;;;;5091096;28;20024;-60
2021/05/10 08:59:55;;;;;;;1.13;0.20;;;;;;;;;;5092772;28;20004;-60
2021/05/10 09:02:33;;;;;;;0.30;0.20;;;;;;;;;;5093494;28;20395;-60
2021/05/10 09:05:14;;;;;;;2.10;0.85;;;;;;;;;;5085876;28;20077;-58
2021/05/10 09:07:40;;;;;;;1.20;0.30;;;;;;;;;;5082945;28;20380;-60
2021/05/10 09:10:10;;;;;;;1.75;0.20;;;;;;;;;;5088218;28;20023;-60
2021/05/10 09:12:48;;;;;;;1.08;0.20;;;;;;;;;;5073639;28;20487;-60
2021/05/10 09:15:19;;;;;;;0.52;0.20;;;;;;;;;;5081732;28;20040;-60
2021/05/10 09:17:53;;;;;;;1.02;0.22;;;;;;;;;;5086222;28;20020;-59
2021/05/10 09:20:29;;;;;;;1.30;0.20;;;;;;;;;;5089839;28;20074;-60
2021/05/10 09:22:55;;;;;;;0.52;0.30;;;;;;;;;;5092729;28;20036;-59
2021/05/10 09:25:28;;;;;;;0.43;0.13;;;;;;;;;;5074621;28;20043;-59
2021/05/10 09:28:07;;;;;;;1.70;0.30;;;;;;;;;;5084772;28;20536;-59
2021/05/10 09:30:34;;;;;;;0.85;0.10;;;;;;;;;;5093498;28;20137;-59
2021/05/10 09:32:59;;;;;;;2.50;0.22;;;;;;;;;;5092456;28;20019;-59
2021/05/10 09:35:28;;;;;;;1.13;0.30;;;;;;;;;;5093449;28;20016;-59
2021/05/10 09:38:01;;;;;;;0.77;0.20;;;;;;;;;;5082575;28;20312;-61
2021/05/10 09:40:28;;;;;;;0.95;0.15;;;;;;;;;;5075366;28;20068;-59
2021/05/10 09:42:55;;;;;;;0.45;0.20;;;;;;;;;;5093772;28;20020;-60
2021/05/10 09:45:39;;;;;;;1.98;0.40;;;;;;;;;;5090916;28;20024;-60
2021/05/10 09:48:06;;;;;;;0.50;0.20;;;;;;;;;;5072046;28;20027;-59
2021/05/10 09:50:35;;;;;;;1.90;0.30;;;;;;;;;;5072874;28;20532;-59
2021/05/10 09:53:01;;;;;;;1.67;0.15;;;;;;;;;;5082598;28;20467;-59
2021/05/10 09:55:46;;;;;;;1.20;0.30;;;;;;;;;;5091369;28;20020;-59
2021/05/10 09:58:12;;;;;;;0.40;0.20;;;;;;;;;;5080524;28;20031;-60
2021/05/10 10:00:37;;;;;;;1.02;0.17;;;;;;;;;;5075945;28;20016;-59
2021/05/10 10:03:04;;;;;;;0.55;0.20;;;;;;;;;;5075560;28;20127;-60
2021/05/10 10:05:29;;;;;;;1.25;0.20;;;;;;;;;;5089662;28;20090;-59
2021/05/10 10:07:55;;;;;;;0.40;0.20;;;;;;;;;;5084204;28;20459;-59
2021/05/10 10:10:20;;;;;;;0.50;0.20;;;;;;;;;;5072857;28;20017;-59
2021/05/10 10:12:46;;;;;;;0.68;0.20;;;;;;;;;;5072571;28;20020;-59
2021/05/10 10:15:11;;;;;;;2.05;0.20;;;;;;;;;;5072708;28;20083;-58
2021/05/10 10:17:37;;;;;;;1.45;0.30;;;;;;;;;;5069426;28;20422;-59
2021/05/10 10:20:04;;;;;;;1.05;0.20;;;;;;;;;;5073524;28;20047;-60
2021/05/10 10:22:29;;;;;;;2.47;0.30;;;;;;;;;;5072428;28;20531;-59
2021/05/10 10:24:55;;;;;;;2.05;0.20;;;;;;;;;;5072338;28;20103;-59
2021/05/10 10:27:22;;;;;;;0.93;0.17;;;;;;;;;;5070781;28;20494;-60
2021/05/10 10:29:48;;;;;;;1.05;0.30;;;;;;;;;;5072338;28;20464;-60
2021/05/10 10:32:17;;;;;;;2.53;0.30;;;;;;;;;;5076365;28;20474;-60
2021/05/10 10:34:45;;;;;;;1.00;0.30;;;;;;;;;;5091334;28;20062;-60
2021/05/10 10:37:11;;;;;;;1.42;0.30;;;;;;;;;;5077582;28;20078;-59
2021/05/10 10:39:47;;;;;;;2.72;0.30;;;;;;;;;;5072251;28;20047;-60
2021/05/10 10:42:21;;;;;;;1.27;0.20;;;;;;;;;;5085070;28;20484;-59
2021/05/10 10:44:56;;;;;;;1.23;0.10;;;;;;;;;;5079599;28;20096;-61
2021/05/10 10:50:54;;;;;;;2.25;0.20;;;;;;;;;;5060935;28;20032;-60
2021/05/10 10:53:39;;;;;;;1.38;0.22;;;;;;;;;;5090779;28;20024;-60
2021/05/10 10:56:04;;;;;;;1.40;0.20;;;;;;;;;;5089543;28;20650;-60
2021/05/10 10:58:31;;;;;;;0.98;0.30;;;;;;;;;;5084507;28;20025;-59
2021/05/10 11:00:56;;;;;;;1.48;0.30;;;;;;;;;;5092028;28;20035;-60
2021/05/10 11:03:28;;;;;;;1.57;0.20;;;;;;;;;;5089571;28;20008;-60
2021/05/10 11:05:53;;;;;;;1.88;0.25;;;;;;;;;;5083675;28;20290;-60
2021/05/10 11:08:37;;;;;;;0.90;0.30;;;;;;;;;;5077198;28;20021;-60
2021/05/10 11:11:02;;;;;;;0.40;0.20;;;;;;;;;;5075975;28;20024;-60
2021/05/10 11:13:30;;;;;;;0.67;0.20;;;;;;;;;;5087744;28;20043;-59
2021/05/10 11:16:05;;;;;;;2.20;0.20;;;;;;;;;;5078215;28;20364;-59
2021/05/10 11:18:46;;;;;;;1.88;0.22;;;;;;;;;;5086716;28;20024;-60
2021/05/10 11:21:23;;;;;;;1.60;0.22;;;;;;;;;;5095702;28;20483;-60
2021/05/10 11:23:49;;;;;;;2.70;0.30;;;;;;;;;;5095340;28;20020;-60
2021/05/10 11:26:34;;;;;;;1.63;0.20;;;;;;;;;;5093000;28;20065;-59
2021/05/10 11:28:59;;;;;;;1.15;0.20;;;;;;;;;;5093990;28;20020;-59
2021/05/10 11:31:32;;;;;;;1.83;0.23;;;;;;;;;;5095871;28;20047;-55
2021/05/10 11:33:57;;;;;;;0.88;0.20;;;;;;;;;;5093403;28;20526;-59
2021/05/10 11:36:22;;;;;;;0.70;0.20;;;;;;;;;;5092722;28;20099;-60
2021/05/10 11:38:53;;;;;;;1.70;0.30;;;;;;;;;;5095255;28;20028;-60
2021/05/10 11:41:26;;;;;;;0.45;0.30;;;;;;;;;;5077681;28;20061;-59
2021/05/10 11:43:51;;;;;;;0.45;0.15;;;;;;;;;;5095805;28;20466;-59
2021/05/10 11:46:35;;;;;;;1.48;0.25;;;;;;;;;;5093016;28;20024;-59
2021/05/10 11:49:00;;;;;;;0.80;0.20;;;;;;;;;;5089921;28;20076;-59
2021/05/10 11:51:26;;;;;;;1.95;0.20;;;;;;;;;;5095459;28;20474;-60
2021/05/10 11:53:58;;;;;;;0.65;0.20;;;;;;;;;;5078952;28;20020;-60
2021/05/10 11:56:27;;;;;;;1.60;0.30;;;;;;;;;;5073608;28;20376;-61
2021/05/10 11:58:58;;;;;;;1.85;0.30;;;;;;;;;;5092352;28;20103;-60
2021/05/10 12:01:37;;;;;;;1.33;0.25;;;;;;;;;;5089097;28;20493;-61
2021/05/10 12:04:19;;;;;;;1.90;0.35;;;;;;;;;;5075077;28;20107;-61
2021/05/10 12:06:44;;;;;;;1.48;0.30;;;;;;;;;;5074200;28;20608;-61
2021/05/10 12:09:28;;;;;;;1.40;0.30;;;;;;;;;;5094196;28;20028;-60
2021/05/10 12:11:53;;;;;;;0.88;0.20;;;;;;;;;;5082738;28;20043;-60
2021/05/10 12:14:18;;;;;;;2.47;0.40;;;;;;;;;;5079420;28;20361;-61
2021/05/10 12:16:59;;;;;;;3.87;0.30;;;;;;;;;;5074345;28;20040;-61
2021/05/10 12:19:24;;;;;;;2.13;0.30;;;;;;;;;;5081545;28;20031;-61
2021/05/10 12:22:03;;;;;;;0.80;0.20;;;;;;;;;;5086288;28;20017;-61
2021/05/10 12:24:28;;;;;;;1.08;0.20;;;;;;;;;;5076059;28;20479;-61
2021/05/10 12:26:53;;;;;;;1.93;0.30;;;;;;;;;;5086653;28;20058;-61
2021/05/10 12:29:19;;;;;;;0.50;0.30;;;;;;;;;;5077330;28;20047;-61
2021/05/10 12:31:44;;;;;;;2.47;0.20;;;;;;;;;;5085422;28;20019;-61
2021/05/10 12:34:09;;;;;;;1.37;0.30;;;;;;;;;;5074711;28;20251;-60
2021/05/10 12:36:34;;;;;;;3.07;0.40;;;;;;;;;;5084188;28;20024;-60
2021/05/10 12:39:13;;;;;;;1.00;0.20;;;;;;;;;;5080347;28;20113;-59
2021/05/10 12:41:38;;;;;;;1.70;0.28;;;;;;;;;;5086160;28;20031;-60
2021/05/10 12:44:08;;;;;;;1.10;0.27;;;;;;;;;;5093674;28;20036;-60
2021/05/10 12:46:43;;;;;;;0.73;0.30;;;;;;;;;;5091782;28;20035;-60
2021/05/10 12:49:21;;;;;;;0.75;0.40;;;;;;;;;;5078568;28;20024;-60
2021/05/10 12:51:53;;;;;;;3.50;0.70;;;;;;;;;;5073592;28;20040;-61
2021/05/10 12:54:19;;;;;;;0.87;0.30;;;;;;;;;;5074223;28;20095;-59
2021/05/10 12:56:44;;;;;;;4.23;0.23;;;;;;;;;;5071078;28;20405;-60
2021/05/10 12:59:09;;;;;;;2.07;0.20;;;;;;;;;;5076714;28;20775;-60
2021/05/10 13:01:36;;;;;;;1.20;0.30;;;;;;;;;;5083361;28;20353;-63
2021/05/10 13:04:03;;;;;;;2.47;0.38;;;;;;;;;;5083320;28;20061;-61
2021/05/10 13:06:39;;;;;;;0.60;0.30;;;;;;;;;;5070411;28;20036;-61
2021/05/10 13:09:05;;;;;;;2.17;0.30;;;;;;;;;;5073513;28;20081;-60
2021/05/10 13:11:35;;;;;;;2.28;0.30;;;;;;;;;;5081308;28;20021;-60
2021/05/10 13:14:14;;;;;;;1.85;0.40;;;;;;;;;;5073707;28;20095;-59
2021/05/10 13:33:07;;;;;;;1.33;0.20;;;;;;;;;;5011642;28;20022;-60
2021/05/10 13:35:37;;;;;;;1.75;0.20;;;;;;;;;;5012220;28;20404;-61
2021/05/10 13:38:04;;;;;;;1.08;0.40;;;;;;;;;;5009889;28;20440;-61
2021/05/10 13:40:30;;;;;;;2.83;0.45;;;;;;;;;;5026177;28;20545;-60
2021/05/10 13:43:00;;;;;;;1.42;0.30;;;;;;;;;;5030042;28;20045;-59
2021/05/10 13:45:25;;;;;;;0.75;0.28;;;;;;;;;;5015739;28;20077;-60
2021/05/10 13:47:51;;;;;;;1.80;0.27;;;;;;;;;;5009035;28;20049;-62
2021/05/10 13:50:16;;;;;;;1.77;0.30;;;;;;;;;;5011594;28;20109;-61
2021/05/10 13:52:41;;;;;;;1.20;0.30;;;;;;;;;;5016931;28;20025;-61
2021/05/10 13:55:06;;;;;;;1.87;0.30;;;;;;;;;;5013333;28;20543;-62
2021/05/10 13:57:32;;;;;;;2.43;0.20;;;;;;;;;;5009057;28;20280;-61
2021/05/10 13:59:57;;;;;;;1.27;0.30;;;;;;;;;;5022611;28;20383;-59
2021/05/10 14:02:22;;;;;;;1.38;0.30;;;;;;;;;;5019442;28;20034;-62
2021/05/10 14:04:48;;;;;;;1.50;0.20;;;;;;;;;;5022230;28;20017;-61
2021/05/10 14:07:13;;;;;;;2.33;0.37;;;;;;;;;;5011737;28;20021;-61
2021/05/10 14:09:38;;;;;;;2.53;0.50;;;;;;;;;;5060630;28;20384;-61
2021/05/10 14:12:03;;;;;;;1.07;0.40;;;;;;;;;;5089474;28;20016;-61
2021/05/10 14:14:29;;;;;;;2.08;0.30;;;;;;;;;;5085611;28;20524;-61
2021/05/10 14:16:54;;;;;;;0.60;0.30;;;;;;;;;;5072930;28;20429;-61
2021/05/10 14:19:21;;;;;;;2.13;0.30;;;;;;;;;;5080665;28;20020;-61
2021/05/10 14:22:01;;;;;;;1.98;0.30;;;;;;;;;;5071692;28;20070;-61
2021/05/10 14:24:27;;;;;;;0.98;0.28;;;;;;;;;;5075462;28;20040;-61
2021/05/10 14:26:52;;;;;;;1.65;0.30;;;;;;;;;;5080505;28;20523;-61
2021/05/10 14:29:18;;;;;;;1.95;0.20;;;;;;;;;;5072579;28;20039;-61
2021/05/10 14:31:44;;;;;;;2.40;0.20;;;;;;;;;;5073077;28;20039;-61
2021/05/10 14:34:10;;;;;;;2.85;0.30;;;;;;;;;;5078318;28;20017;-61
2021/05/10 14:36:36;;;;;;;2.17;0.40;;;;;;;;;;5068744;28;20051;-61
2021/05/10 14:39:05;;;;;;;1.27;0.28;;;;;;;;;;5072165;28;20024;-61
2021/05/10 14:41:30;;;;;;;2.88;0.30;;;;;;;;;;5072207;28;20518;-61
2021/05/10 14:43:56;;;;;;;2.72;0.30;;;;;;;;;;5072350;28;20016;-61
2021/05/10 14:46:21;;;;;;;0.80;0.40;;;;;;;;;;5052123;28;20464;-61
2021/05/10 14:48:46;;;;;;;1.42;0.20;;;;;;;;;;5074105;28;20289;-61
2021/05/10 14:51:13;;;;;;;1.53;0.30;;;;;;;;;;5091285;28;20020;-61
2021/05/10 14:53:38;;;;;;;1.40;0.40;;;;;;;;;;5084755;28;20456;-60
2021/05/10 14:56:03;;;;;;;2.33;0.40;;;;;;;;;;5068611;28;20539;-60
2021/05/10 14:58:29;;;;;;;1.75;0.50;;;;;;;;;;5076025;28;20051;-60
2021/05/10 15:00:54;;;;;;;1.17;0.30;;;;;;;;;;5071966;28;20483;-58
2021/05/10 15:03:19;;;;;;;1.53;0.20;;;;;;;;;;5084977;28;20407;-59
2021/05/10 15:05:48;;;;;;;1.73;0.20;;;;;;;;;;5077168;28;20131;-58
2021/05/10 15:08:13;;;;;;;1.42;0.65;;;;;;;;;;5091201;28;20246;-57
2021/05/10 15:10:38;;;;;;;1.77;0.20;;;;;;;;;;5084248;28;20135;-59